Terminal Aerodrome Forecast
Issued by NWS Newport/Morehead City, NC

Home | Current Version | Previous Version | Graphics & Text | Print | Product List | Glossary Off
Versions: 1 2 3 4 5 6 7 8 9 10 11 12 13 14 15 16

000
FTUS42 KMHX 211736
TAFEWN
TAF
KEWN 211736Z 2118/2218 VRB04KT P6SM BKN040
     FM220000 VRB03KT P6SM VCSH BKN050
     FM220500 00000KT 4SM -SHRA BR SCT020 OVC050
     FM221000 VRB04KT P6SM SCT007 BKN020
     FM221500 33008KT P6SM BKN050
     FM221700 34009KT P6SM SCT150=

USA.gov is the U.S. government's official web portal to all federal, state and local government web resources and services.